sensor_id;sensor_type;location;lat;lon;timestamp;P1;durP1;ratioP1;P2;durP2;ratioP2
7108;SDS011;29079;41.930;25.558;2023-02-28T00:00:49;39.83;;;16.80;;
7108;SDS011;29079;41.930;25.558;2023-02-28T00:03:23;34.40;;;14.20;;
7108;SDS011;29079;41.930;25.558;2023-02-28T00:05:57;35.65;;;15.80;;
7108;SDS011;29079;41.930;25.558;2023-02-28T00:08:30;32.72;;;14.35;;
7108;SDS011;29079;41.930;25.558;2023-02-28T00:11:06;33.95;;;15.98;;
7108;SDS011;29079;41.930;25.558;2023-02-28T00:13:42;34.25;;;16.88;;
7108;SDS011;29079;41.930;25.558;2023-02-28T00:16:20;40.08;;;16.00;;
7108;SDS011;29079;41.930;25.558;2023-02-28T00:18:55;30.38;;;14.68;;
7108;SDS011;29079;41.930;25.558;2023-02-28T00:21:28;25.20;;;13.70;;
7108;SDS011;29079;41.930;25.558;2023-02-28T00:24:03;35.90;;;13.70;;
7108;SDS011;29079;41.930;25.558;2023-02-28T00:26:38;27.13;;;14.55;;
7108;SDS011;29079;41.930;25.558;2023-02-28T00:29:11;42.90;;;15.55;;
7108;SDS011;29079;41.930;25.558;2023-02-28T00:31:45;38.28;;;14.50;;
7108;SDS011;29079;41.930;25.558;2023-02-28T00:34:18;36.50;;;12.90;;
7108;SDS011;29079;41.930;25.558;2023-02-28T00:36:52;31.02;;;13.45;;
7108;SDS011;29079;41.930;25.558;2023-02-28T00:39:25;29.40;;;11.80;;
7108;SDS011;29079;41.930;25.558;2023-02-28T00:42:01;29.45;;;12.07;;
7108;SDS011;29079;41.930;25.558;2023-02-28T00:44:35;47.92;;;12.80;;
7108;SDS011;29079;41.930;25.558;2023-02-28T00:49:42;33.80;;;13.02;;
7108;SDS011;29079;41.930;25.558;2023-02-28T00:52:15;32.42;;;14.23;;
7108;SDS011;29079;41.930;25.558;2023-02-28T00:54:49;35.25;;;14.75;;
7108;SDS011;29079;41.930;25.558;2023-02-28T00:57:24;38.72;;;15.98;;
7108;SDS011;29079;41.930;25.558;2023-02-28T00:59:58;32.47;;;14.45;;
7108;SDS011;29079;41.930;25.558;2023-02-28T01:02:31;36.75;;;16.75;;
7108;SDS011;29079;41.930;25.558;2023-02-28T01:05:05;42.00;;;17.48;;
7108;SDS011;29079;41.930;25.558;2023-02-28T01:07:39;35.60;;;15.82;;
7108;SDS011;29079;41.930;25.558;2023-02-28T01:10:12;49.28;;;15.80;;
7108;SDS011;29079;41.930;25.558;2023-02-28T01:12:50;40.83;;;15.73;;
7108;SDS011;29079;41.930;25.558;2023-02-28T01:15:24;33.05;;;14.05;;
7108;SDS011;29079;41.930;25.558;2023-02-28T01:17:58;27.48;;;15.55;;
7108;SDS011;29079;41.930;25.558;2023-02-28T01:20:31;30.45;;;15.00;;
7108;SDS011;29079;41.930;25.558;2023-02-28T01:23:05;31.77;;;15.38;;
7108;SDS011;29079;41.930;25.558;2023-02-28T01:25:38;30.05;;;16.20;;
7108;SDS011;29079;41.930;25.558;2023-02-28T01:28:13;35.78;;;15.52;;
7108;SDS011;29079;41.930;25.558;2023-02-28T01:30:47;34.92;;;14.45;;
7108;SDS011;29079;41.930;25.558;2023-02-28T01:33:22;29.33;;;14.85;;
7108;SDS011;29079;41.930;25.558;2023-02-28T01:35:58;34.75;;;15.35;;
7108;SDS011;29079;41.930;25.558;2023-02-28T01:38:32;31.73;;;15.07;;
7108;SDS011;29079;41.930;25.558;2023-02-28T01:41:06;33.47;;;16.35;;
7108;SDS011;29079;41.930;25.558;2023-02-28T01:43:55;36.72;;;17.17;;
7108;SDS011;29079;41.930;25.558;2023-02-28T01:46:35;44.58;;;18.52;;
7108;SDS011;29079;41.930;25.558;2023-02-28T01:49:10;33.55;;;17.13;;
7108;SDS011;29079;41.930;25.558;2023-02-28T01:51:48;30.38;;;17.77;;
7108;SDS011;29079;41.930;25.558;2023-02-28T01:54:27;32.63;;;18.17;;
7108;SDS011;29079;41.930;25.558;2023-02-28T01:57:05;31.25;;;17.88;;
7108;SDS011;29079;41.930;25.558;2023-02-28T01:59:44;40.05;;;18.33;;
7108;SDS011;29079;41.930;25.558;2023-02-28T02:02:21;30.33;;;16.23;;
7108;SDS011;29079;41.930;25.558;2023-02-28T02:04:59;30.67;;;13.98;;
7108;SDS011;29079;41.930;25.558;2023-02-28T02:07:38;31.60;;;15.23;;
7108;SDS011;29079;41.930;25.558;2023-02-28T02:10:14;29.45;;;15.63;;
7108;SDS011;29079;41.930;25.558;2023-02-28T02:12:55;34.80;;;17.70;;
7108;SDS011;29079;41.930;25.558;2023-02-28T02:15:44;30.45;;;17.55;;
7108;SDS011;29079;41.930;25.558;2023-02-28T02:18:29;41.60;;;18.67;;
7108;SDS011;29079;41.930;25.558;2023-02-28T02:24:45;33.33;;;15.82;;
7108;SDS011;29079;41.930;25.558;2023-02-28T02:27:38;41.25;;;17.90;;
7108;SDS011;29079;41.930;25.558;2023-02-28T02:34:13;29.65;;;15.30;;
7108;SDS011;29079;41.930;25.558;2023-02-28T02:37:04;23.42;;;12.95;;
7108;SDS011;29079;41.930;25.558;2023-02-28T02:39:49;20.45;;;12.48;;
7108;SDS011;29079;41.930;25.558;2023-02-28T02:42:27;21.17;;;11.73;;
7108;SDS011;29079;41.930;25.558;2023-02-28T02:45:06;20.52;;;11.52;;
7108;SDS011;29079;41.930;25.558;2023-02-28T02:47:43;23.48;;;10.43;;
7108;SDS011;29079;41.930;25.558;2023-02-28T02:50:21;18.27;;;11.18;;
7108;SDS011;29079;41.930;25.558;2023-02-28T02:53:00;21.52;;;10.50;;
7108;SDS011;29079;41.930;25.558;2023-02-28T02:55:37;14.07;;;9.35;;
7108;SDS011;29079;41.930;25.558;2023-02-28T02:58:14;15.05;;;8.07;;
7108;SDS011;29079;41.930;25.558;2023-02-28T03:00:53;21.45;;;10.23;;
7108;SDS011;29079;41.930;25.558;2023-02-28T03:03:31;15.15;;;7.35;;
7108;SDS011;29079;41.930;25.558;2023-02-28T03:06:08;15.85;;;7.80;;
7108;SDS011;29079;41.930;25.558;2023-02-28T03:08:41;13.25;;;8.27;;
7108;SDS011;29079;41.930;25.558;2023-02-28T03:11:15;17.77;;;7.15;;
7108;SDS011;29079;41.930;25.558;2023-02-28T03:14:05;13.32;;;6.78;;
7108;SDS011;29079;41.930;25.558;2023-02-28T03:17:00;17.08;;;7.80;;
7108;SDS011;29079;41.930;25.558;2023-02-28T03:19:47;13.63;;;7.07;;
7108;SDS011;29079;41.930;25.558;2023-02-28T03:22:42;19.70;;;7.30;;
7108;SDS011;29079;41.930;25.558;2023-02-28T03:25:29;16.70;;;6.70;;
7108;SDS011;29079;41.930;25.558;2023-02-28T03:28:08;17.63;;;7.53;;
7108;SDS011;29079;41.930;25.558;2023-02-28T03:30:49;17.08;;;7.35;;
7108;SDS011;29079;41.930;25.558;2023-02-28T03:33:26;14.60;;;7.95;;
7108;SDS011;29079;41.930;25.558;2023-02-28T03:36:04;13.98;;;7.00;;
7108;SDS011;29079;41.930;25.558;2023-02-28T03:38:43;13.07;;;7.03;;
7108;SDS011;29079;41.930;25.558;2023-02-28T03:41:22;12.25;;;6.40;;
7108;SDS011;29079;41.930;25.558;2023-02-28T03:44:02;18.08;;;8.02;;
7108;SDS011;29079;41.930;25.558;2023-02-28T03:46:39;20.27;;;6.72;;
7108;SDS011;29079;41.930;25.558;2023-02-28T03:49:18;15.77;;;6.82;;
7108;SDS011;29079;41.930;25.558;2023-02-28T03:51:55;14.80;;;6.47;;
7108;SDS011;29079;41.930;25.558;2023-02-28T03:54:35;18.27;;;9.27;;
7108;SDS011;29079;41.930;25.558;2023-02-28T03:57:15;11.25;;;6.07;;
7108;SDS011;29079;41.930;25.558;2023-02-28T03:59:56;14.27;;;6.80;;
7108;SDS011;29079;41.930;25.558;2023-02-28T04:02:32;12.38;;;6.32;;
7108;SDS011;29079;41.930;25.558;2023-02-28T04:07:41;15.05;;;6.38;;
7108;SDS011;29079;41.930;25.558;2023-02-28T04:10:16;13.38;;;6.28;;
7108;SDS011;29079;41.930;25.558;2023-02-28T04:12:51;14.02;;;7.18;;
7108;SDS011;29079;41.930;25.558;2023-02-28T04:15:25;16.00;;;6.63;;
7108;SDS011;29079;41.930;25.558;2023-02-28T04:17:59;15.25;;;6.55;;
7108;SDS011;29079;41.930;25.558;2023-02-28T04:20:33;14.60;;;6.88;;
7108;SDS011;29079;41.930;25.558;2023-02-28T04:23:06;12.63;;;6.20;;
7108;SDS011;29079;41.930;25.558;2023-02-28T04:25:41;12.15;;;6.65;;
7108;SDS011;29079;41.930;25.558;2023-02-28T04:28:15;17.73;;;7.10;;
7108;SDS011;29079;41.930;25.558;2023-02-28T04:30:53;13.88;;;6.25;;
7108;SDS011;29079;41.930;25.558;2023-02-28T04:33:28;16.20;;;6.60;;
7108;SDS011;29079;41.930;25.558;2023-02-28T04:36:01;20.48;;;8.25;;
7108;SDS011;29079;41.930;25.558;2023-02-28T04:38:37;16.52;;;8.45;;
7108;SDS011;29079;41.930;25.558;2023-02-28T04:41:13;24.15;;;10.38;;
7108;SDS011;29079;41.930;25.558;2023-02-28T04:43:46;18.25;;;10.32;;
7108;SDS011;29079;41.930;25.558;2023-02-28T04:46:20;26.02;;;9.07;;
7108;SDS011;29079;41.930;25.558;2023-02-28T04:48:54;17.00;;;9.98;;
7108;SDS011;29079;41.930;25.558;2023-02-28T04:51:27;16.65;;;9.70;;
7108;SDS011;29079;41.930;25.558;2023-02-28T04:54:01;17.35;;;9.98;;
7108;SDS011;29079;41.930;25.558;2023-02-28T04:56:36;19.73;;;10.48;;
7108;SDS011;29079;41.930;25.558;2023-02-28T04:59:09;21.20;;;9.52;;
7108;SDS011;29079;41.930;25.558;2023-02-28T05:01:45;19.60;;;9.15;;
7108;SDS011;29079;41.930;25.558;2023-02-28T05:04:19;17.98;;;10.82;;
7108;SDS011;29079;41.930;25.558;2023-02-28T05:06:53;20.23;;;10.48;;
7108;SDS011;29079;41.930;25.558;2023-02-28T05:12:03;28.92;;;13.90;;
7108;SDS011;29079;41.930;25.558;2023-02-28T05:14:37;20.27;;;11.70;;
7108;SDS011;29079;41.930;25.558;2023-02-28T05:19:44;18.08;;;10.65;;
7108;SDS011;29079;41.930;25.558;2023-02-28T05:22:17;19.77;;;10.60;;
7108;SDS011;29079;41.930;25.558;2023-02-28T05:24:50;19.50;;;9.85;;
7108;SDS011;29079;41.930;25.558;2023-02-28T05:27:25;17.88;;;11.55;;
7108;SDS011;29079;41.930;25.558;2023-02-28T05:30:00;17.13;;;10.63;;
7108;SDS011;29079;41.930;25.558;2023-02-28T05:32:35;18.88;;;11.00;;
7108;SDS011;29079;41.930;25.558;2023-02-28T05:35:09;23.80;;;10.25;;
7108;SDS011;29079;41.930;25.558;2023-02-28T05:37:43;26.35;;;12.02;;
7108;SDS011;29079;41.930;25.558;2023-02-28T05:40:17;22.05;;;10.45;;
7108;SDS011;29079;41.930;25.558;2023-02-28T05:42:53;18.02;;;10.88;;
7108;SDS011;29079;41.930;25.558;2023-02-28T05:45:27;18.45;;;10.85;;
7108;SDS011;29079;41.930;25.558;2023-02-28T05:48:00;25.00;;;12.23;;
7108;SDS011;29079;41.930;25.558;2023-02-28T05:50:34;27.77;;;12.15;;
7108;SDS011;29079;41.930;25.558;2023-02-28T05:53:07;17.55;;;10.40;;
7108;SDS011;29079;41.930;25.558;2023-02-28T05:55:41;18.33;;;10.55;;
7108;SDS011;29079;41.930;25.558;2023-02-28T05:58:15;22.25;;;11.50;;
7108;SDS011;29079;41.930;25.558;2023-02-28T06:00:49;21.90;;;12.00;;
7108;SDS011;29079;41.930;25.558;2023-02-28T06:03:22;34.13;;;12.60;;
7108;SDS011;29079;41.930;25.558;2023-02-28T06:05:56;25.85;;;12.13;;
7108;SDS011;29079;41.930;25.558;2023-02-28T06:08:30;22.98;;;11.55;;
7108;SDS011;29079;41.930;25.558;2023-02-28T06:11:04;26.95;;;12.05;;
7108;SDS011;29079;41.930;25.558;2023-02-28T06:13:39;27.55;;;11.38;;
7108;SDS011;29079;41.930;25.558;2023-02-28T06:16:13;21.40;;;12.60;;
7108;SDS011;29079;41.930;25.558;2023-02-28T06:18:47;19.10;;;12.77;;
7108;SDS011;29079;41.930;25.558;2023-02-28T06:21:20;27.77;;;13.73;;
7108;SDS011;29079;41.930;25.558;2023-02-28T06:23:54;27.10;;;13.38;;
7108;SDS011;29079;41.930;25.558;2023-02-28T06:26:29;25.33;;;13.85;;
7108;SDS011;29079;41.930;25.558;2023-02-28T06:36:45;28.03;;;15.23;;
7108;SDS011;29079;41.930;25.558;2023-02-28T06:39:19;29.17;;;15.13;;
7108;SDS011;29079;41.930;25.558;2023-02-28T06:44:28;33.25;;;17.30;;
7108;SDS011;29079;41.930;25.558;2023-02-28T06:47:07;26.38;;;16.27;;
7108;SDS011;29079;41.930;25.558;2023-02-28T06:49:40;35.40;;;20.50;;
7108;SDS011;29079;41.930;25.558;2023-02-28T06:54:48;31.02;;;17.42;;
7108;SDS011;29079;41.930;25.558;2023-02-28T06:57:31;32.67;;;17.05;;
7108;SDS011;29079;41.930;25.558;2023-02-28T07:00:08;31.70;;;16.98;;
7108;SDS011;29079;41.930;25.558;2023-02-28T07:02:44;32.80;;;18.33;;
7108;SDS011;29079;41.930;25.558;2023-02-28T07:05:19;40.17;;;19.25;;
7108;SDS011;29079;41.930;25.558;2023-02-28T07:07:52;34.10;;;18.92;;
7108;SDS011;29079;41.930;25.558;2023-02-28T07:10:25;31.95;;;18.98;;
7108;SDS011;29079;41.930;25.558;2023-02-28T07:12:59;38.60;;;19.40;;
7108;SDS011;29079;41.930;25.558;2023-02-28T07:15:36;38.42;;;19.15;;
7108;SDS011;29079;41.930;25.558;2023-02-28T07:18:13;36.95;;;19.90;;
7108;SDS011;29079;41.930;25.558;2023-02-28T07:20:47;31.15;;;19.63;;
7108;SDS011;29079;41.930;25.558;2023-02-28T07:23:20;38.20;;;20.23;;
7108;SDS011;29079;41.930;25.558;2023-02-28T07:25:53;41.83;;;20.83;;
7108;SDS011;29079;41.930;25.558;2023-02-28T07:31:05;37.95;;;22.08;;
7108;SDS011;29079;41.930;25.558;2023-02-28T07:33:41;47.25;;;23.83;;
7108;SDS011;29079;41.930;25.558;2023-02-28T07:36:15;43.85;;;22.60;;
7108;SDS011;29079;41.930;25.558;2023-02-28T07:38:50;41.70;;;21.42;;
7108;SDS011;29079;41.930;25.558;2023-02-28T07:41:23;46.33;;;24.20;;
7108;SDS011;29079;41.930;25.558;2023-02-28T07:44:00;41.33;;;22.70;;
7108;SDS011;29079;41.930;25.558;2023-02-28T07:46:36;50.08;;;24.33;;
7108;SDS011;29079;41.930;25.558;2023-02-28T07:49:10;43.08;;;23.40;;
7108;SDS011;29079;41.930;25.558;2023-02-28T07:51:43;45.78;;;22.33;;
7108;SDS011;29079;41.930;25.558;2023-02-28T07:54:16;49.20;;;22.60;;
7108;SDS011;29079;41.930;25.558;2023-02-28T07:56:50;39.53;;;22.75;;
7108;SDS011;29079;41.930;25.558;2023-02-28T07:59:24;55.08;;;25.48;;
7108;SDS011;29079;41.930;25.558;2023-02-28T08:01:59;58.95;;;26.30;;
7108;SDS011;29079;41.930;25.558;2023-02-28T08:04:33;45.30;;;24.63;;
7108;SDS011;29079;41.930;25.558;2023-02-28T08:07:07;51.55;;;26.48;;
7108;SDS011;29079;41.930;25.558;2023-02-28T08:09:42;47.70;;;22.88;;
7108;SDS011;29079;41.930;25.558;2023-02-28T08:12:18;49.22;;;25.95;;
7108;SDS011;29079;41.930;25.558;2023-02-28T08:14:52;42.55;;;24.92;;
7108;SDS011;29079;41.930;25.558;2023-02-28T08:17:27;44.83;;;24.95;;
7108;SDS011;29079;41.930;25.558;2023-02-28T08:20:01;51.17;;;25.85;;
7108;SDS011;29079;41.930;25.558;2023-02-28T08:22:35;50.92;;;25.95;;
7108;SDS011;29079;41.930;25.558;2023-02-28T08:25:09;50.28;;;27.00;;
7108;SDS011;29079;41.930;25.558;2023-02-28T08:30:16;47.10;;;24.95;;
7108;SDS011;29079;41.930;25.558;2023-02-28T08:32:51;52.58;;;24.52;;
7108;SDS011;29079;41.930;25.558;2023-02-28T08:35:24;51.13;;;26.05;;
7108;SDS011;29079;41.930;25.558;2023-02-28T08:37:58;42.17;;;24.50;;
7108;SDS011;29079;41.930;25.558;2023-02-28T08:40:31;50.45;;;25.95;;
7108;SDS011;29079;41.930;25.558;2023-02-28T08:43:04;50.88;;;26.77;;
7108;SDS011;29079;41.930;25.558;2023-02-28T08:45:38;56.22;;;28.35;;
7108;SDS011;29079;41.930;25.558;2023-02-28T08:48:13;78.57;;;32.17;;
7108;SDS011;29079;41.930;25.558;2023-02-28T08:50:56;97.68;;;38.90;;
7108;SDS011;29079;41.930;25.558;2023-02-28T08:53:39;83.03;;;36.67;;
7108;SDS011;29079;41.930;25.558;2023-02-28T08:56:13;83.47;;;38.75;;
7108;SDS011;29079;41.930;25.558;2023-02-28T08:58:49;104.55;;;40.67;;
7108;SDS011;29079;41.930;25.558;2023-02-28T09:01:24;112.57;;;45.92;;
7108;SDS011;29079;41.930;25.558;2023-02-28T09:04:01;95.72;;;38.92;;
7108;SDS011;29079;41.930;25.558;2023-02-28T09:06:36;91.45;;;40.03;;
7108;SDS011;29079;41.930;25.558;2023-02-28T09:09:10;86.45;;;35.72;;
7108;SDS011;29079;41.930;25.558;2023-02-28T09:11:48;95.60;;;38.63;;
7108;SDS011;29079;41.930;25.558;2023-02-28T09:14:22;92.03;;;39.80;;
7108;SDS011;29079;41.930;25.558;2023-02-28T09:16:56;77.38;;;34.90;;
7108;SDS011;29079;41.930;25.558;2023-02-28T09:19:33;82.35;;;37.30;;
7108;SDS011;29079;41.930;25.558;2023-02-28T09:22:06;101.35;;;40.72;;
7108;SDS011;29079;41.930;25.558;2023-02-28T09:24:39;77.50;;;36.55;;
7108;SDS011;29079;41.930;25.558;2023-02-28T09:27:13;96.80;;;41.58;;
7108;SDS011;29079;41.930;25.558;2023-02-28T09:29:46;102.68;;;42.25;;
7108;SDS011;29079;41.930;25.558;2023-02-28T09:32:20;108.30;;;43.45;;
7108;SDS011;29079;41.930;25.558;2023-02-28T09:34:55;103.50;;;42.28;;
7108;SDS011;29079;41.930;25.558;2023-02-28T09:37:28;88.03;;;38.20;;
7108;SDS011;29079;41.930;25.558;2023-02-28T09:40:03;88.38;;;37.85;;
7108;SDS011;29079;41.930;25.558;2023-02-28T09:42:37;74.07;;;33.65;;
7108;SDS011;29079;41.930;25.558;2023-02-28T09:45:13;71.53;;;33.30;;
7108;SDS011;29079;41.930;25.558;2023-02-28T09:47:54;56.13;;;28.33;;
7108;SDS011;29079;41.930;25.558;2023-02-28T09:50:34;52.45;;;27.40;;
7108;SDS011;29079;41.930;25.558;2023-02-28T09:53:11;44.55;;;24.33;;
7108;SDS011;29079;41.930;25.558;2023-02-28T09:55:55;38.97;;;21.10;;
7108;SDS011;29079;41.930;25.558;2023-02-28T09:58:32;36.95;;;19.20;;
7108;SDS011;29079;41.930;25.558;2023-02-28T10:01:12;39.70;;;20.85;;
7108;SDS011;29079;41.930;25.558;2023-02-28T10:03:55;35.58;;;19.92;;
7108;SDS011;29079;41.930;25.558;2023-02-28T10:06:35;39.40;;;20.80;;
7108;SDS011;29079;41.930;25.558;2023-02-28T10:09:14;36.13;;;21.02;;
7108;SDS011;29079;41.930;25.558;2023-02-28T10:11:59;38.00;;;21.95;;
7108;SDS011;29079;41.930;25.558;2023-02-28T10:14:37;50.67;;;25.30;;
7108;SDS011;29079;41.930;25.558;2023-02-28T10:17:17;49.42;;;25.38;;
7108;SDS011;29079;41.930;25.558;2023-02-28T10:19:56;45.25;;;26.83;;
7108;SDS011;29079;41.930;25.558;2023-02-28T10:22:42;64.35;;;36.05;;
7108;SDS011;29079;41.930;25.558;2023-02-28T10:25:28;69.55;;;36.45;;
7108;SDS011;29079;41.930;25.558;2023-02-28T10:28:07;59.03;;;33.00;;
7108;SDS011;29079;41.930;25.558;2023-02-28T10:30:46;49.22;;;28.60;;
7108;SDS011;29079;41.930;25.558;2023-02-28T10:33:24;48.78;;;24.58;;
7108;SDS011;29079;41.930;25.558;2023-02-28T10:36:01;44.35;;;24.73;;
7108;SDS011;29079;41.930;25.558;2023-02-28T10:38:39;47.95;;;24.25;;
7108;SDS011;29079;41.930;25.558;2023-02-28T10:41:14;54.67;;;25.20;;
7108;SDS011;29079;41.930;25.558;2023-02-28T10:43:51;38.58;;;21.75;;
7108;SDS011;29079;41.930;25.558;2023-02-28T10:49:01;40.95;;;22.85;;
7108;SDS011;29079;41.930;25.558;2023-02-28T10:51:37;35.97;;;20.25;;
7108;SDS011;29079;41.930;25.558;2023-02-28T10:54:16;32.05;;;18.80;;
7108;SDS011;29079;41.930;25.558;2023-02-28T10:59:51;30.63;;;17.17;;
7108;SDS011;29079;41.930;25.558;2023-02-28T11:02:32;28.73;;;16.50;;
7108;SDS011;29079;41.930;25.558;2023-02-28T11:08:05;33.75;;;19.65;;
7108;SDS011;29079;41.930;25.558;2023-02-28T11:10:46;27.42;;;17.20;;
7108;SDS011;29079;41.930;25.558;2023-02-28T11:13:21;26.15;;;16.65;;
7108;SDS011;29079;41.930;25.558;2023-02-28T11:16:02;27.15;;;15.60;;
7108;SDS011;29079;41.930;25.558;2023-02-28T11:18:39;24.27;;;15.13;;
7108;SDS011;29079;41.930;25.558;2023-02-28T11:21:16;22.90;;;13.88;;
7108;SDS011;29079;41.930;25.558;2023-02-28T11:23:55;22.13;;;14.13;;
7108;SDS011;29079;41.930;25.558;2023-02-28T11:26:39;25.13;;;14.60;;
7108;SDS011;29079;41.930;25.558;2023-02-28T11:29:19;21.63;;;14.25;;
7108;SDS011;29079;41.930;25.558;2023-02-28T11:32:09;25.85;;;14.93;;
7108;SDS011;29079;41.930;25.558;2023-02-28T11:35:00;31.55;;;17.20;;
7108;SDS011;29079;41.930;25.558;2023-02-28T11:37:59;24.13;;;15.25;;
7108;SDS011;29079;41.930;25.558;2023-02-28T11:40:37;26.90;;;14.25;;
7108;SDS011;29079;41.930;25.558;2023-02-28T11:43:20;30.90;;;14.68;;
7108;SDS011;29079;41.930;25.558;2023-02-28T11:46:06;23.08;;;14.52;;
7108;SDS011;29079;41.930;25.558;2023-02-28T11:48:53;28.75;;;16.73;;
7108;SDS011;29079;41.930;25.558;2023-02-28T11:51:33;35.95;;;20.00;;
7108;SDS011;29079;41.930;25.558;2023-02-28T11:54:26;34.70;;;20.40;;
7108;SDS011;29079;41.930;25.558;2023-02-28T11:57:24;41.47;;;20.85;;
7108;SDS011;29079;41.930;25.558;2023-02-28T12:00:09;40.88;;;23.77;;
7108;SDS011;29079;41.930;25.558;2023-02-28T12:02:55;34.90;;;22.73;;
7108;SDS011;29079;41.930;25.558;2023-02-28T12:05:40;33.00;;;22.17;;
7108;SDS011;29079;41.930;25.558;2023-02-28T12:08:23;39.88;;;22.92;;
7108;SDS011;29079;41.930;25.558;2023-02-28T12:11:11;47.25;;;28.25;;
7108;SDS011;29079;41.930;25.558;2023-02-28T12:13:55;48.93;;;30.07;;
7108;SDS011;29079;41.930;25.558;2023-02-28T12:16:54;49.20;;;27.58;;
7108;SDS011;29079;41.930;25.558;2023-02-28T12:19:34;41.58;;;26.42;;
7108;SDS011;29079;41.930;25.558;2023-02-28T12:22:27;51.70;;;28.60;;
7108;SDS011;29079;41.930;25.558;2023-02-28T12:25:10;49.63;;;28.75;;
7108;SDS011;29079;41.930;25.558;2023-02-28T12:27:56;51.30;;;27.30;;
7108;SDS011;29079;41.930;25.558;2023-02-28T12:30:30;50.92;;;29.00;;
7108;SDS011;29079;41.930;25.558;2023-02-28T12:33:09;42.67;;;26.73;;
7108;SDS011;29079;41.930;25.558;2023-02-28T12:35:48;46.78;;;25.60;;
7108;SDS011;29079;41.930;25.558;2023-02-28T12:38:27;42.85;;;27.52;;
7108;SDS011;29079;41.930;25.558;2023-02-28T12:41:04;48.38;;;26.83;;
7108;SDS011;29079;41.930;25.558;2023-02-28T12:43:46;41.33;;;24.85;;
7108;SDS011;29079;41.930;25.558;2023-02-28T12:46:22;41.28;;;24.52;;
7108;SDS011;29079;41.930;25.558;2023-02-28T12:49:02;36.58;;;22.85;;
7108;SDS011;29079;41.930;25.558;2023-02-28T12:51:41;40.00;;;25.75;;
7108;SDS011;29079;41.930;25.558;2023-02-28T12:54:19;41.95;;;24.67;;
7108;SDS011;29079;41.930;25.558;2023-02-28T12:57:01;41.90;;;25.75;;
7108;SDS011;29079;41.930;25.558;2023-02-28T12:59:43;35.13;;;22.27;;
7108;SDS011;29079;41.930;25.558;2023-02-28T13:02:27;32.20;;;19.05;;
7108;SDS011;29079;41.930;25.558;2023-02-28T13:05:35;39.35;;;20.83;;
7108;SDS011;29079;41.930;25.558;2023-02-28T13:08:39;33.15;;;22.65;;
7108;SDS011;29079;41.930;25.558;2023-02-28T13:11:33;43.42;;;24.05;;
7108;SDS011;29079;41.930;25.558;2023-02-28T13:14:19;46.03;;;25.42;;
7108;SDS011;29079;41.930;25.558;2023-02-28T13:17:02;38.17;;;23.45;;
7108;SDS011;29079;41.930;25.558;2023-02-28T13:19:44;33.92;;;19.33;;
7108;SDS011;29079;41.930;25.558;2023-02-28T13:22:22;30.65;;;20.83;;
7108;SDS011;29079;41.930;25.558;2023-02-28T13:37:47;32.30;;;19.17;;
7108;SDS011;29079;41.930;25.558;2023-02-28T13:40:28;32.10;;;21.15;;
7108;SDS011;29079;41.930;25.558;2023-02-28T13:43:08;28.58;;;18.50;;
7108;SDS011;29079;41.930;25.558;2023-02-28T13:45:44;29.52;;;17.83;;
7108;SDS011;29079;41.930;25.558;2023-02-28T13:48:40;37.03;;;19.00;;
7108;SDS011;29079;41.930;25.558;2023-02-28T13:51:38;34.25;;;19.08;;
7108;SDS011;29079;41.930;25.558;2023-02-28T13:57:18;34.63;;;18.70;;
7108;SDS011;29079;41.930;25.558;2023-02-28T14:00:02;28.77;;;17.55;;
7108;SDS011;29079;41.930;25.558;2023-02-28T14:02:54;32.38;;;16.98;;
7108;SDS011;29079;41.930;25.558;2023-02-28T14:05:38;33.67;;;16.92;;
7108;SDS011;29079;41.930;25.558;2023-02-28T14:08:15;32.58;;;17.20;;
7108;SDS011;29079;41.930;25.558;2023-02-28T14:11:02;32.47;;;18.25;;
7108;SDS011;29079;41.930;25.558;2023-02-28T14:13:40;34.90;;;19.08;;
7108;SDS011;29079;41.930;25.558;2023-02-28T14:16:20;30.13;;;19.42;;
7108;SDS011;29079;41.930;25.558;2023-02-28T14:18:58;28.38;;;18.58;;
7108;SDS011;29079;41.930;25.558;2023-02-28T14:21:35;29.02;;;20.00;;
7108;SDS011;29079;41.930;25.558;2023-02-28T14:24:24;27.92;;;18.95;;
7108;SDS011;29079;41.930;25.558;2023-02-28T14:33:37;36.55;;;23.23;;
7108;SDS011;29079;41.930;25.558;2023-02-28T14:36:21;39.15;;;23.95;;
7108;SDS011;29079;41.930;25.558;2023-02-28T14:39:04;50.38;;;26.58;;
7108;SDS011;29079;41.930;25.558;2023-02-28T14:41:42;46.25;;;25.10;;
7108;SDS011;29079;41.930;25.558;2023-02-28T14:44:18;42.42;;;24.38;;
7108;SDS011;29079;41.930;25.558;2023-02-28T14:46:53;41.30;;;24.88;;
7108;SDS011;29079;41.930;25.558;2023-02-28T14:49:29;45.03;;;25.45;;
7108;SDS011;29079;41.930;25.558;2023-02-28T14:52:11;43.47;;;25.42;;
7108;SDS011;29079;41.930;25.558;2023-02-28T14:54:51;55.85;;;27.75;;
7108;SDS011;29079;41.930;25.558;2023-02-28T14:57:28;48.08;;;25.50;;
7108;SDS011;29079;41.930;25.558;2023-02-28T15:00:09;44.15;;;25.80;;
7108;SDS011;29079;41.930;25.558;2023-02-28T15:02:46;47.88;;;26.63;;
7108;SDS011;29079;41.930;25.558;2023-02-28T15:05:23;50.47;;;28.30;;
7108;SDS011;29079;41.930;25.558;2023-02-28T15:08:06;44.92;;;26.88;;
7108;SDS011;29079;41.930;25.558;2023-02-28T15:10:49;41.50;;;23.77;;
7108;SDS011;29079;41.930;25.558;2023-02-28T15:13:29;39.35;;;23.48;;
7108;SDS011;29079;41.930;25.558;2023-02-28T15:16:10;39.63;;;22.08;;
7108;SDS011;29079;41.930;25.558;2023-02-28T15:18:47;35.08;;;20.80;;
7108;SDS011;29079;41.930;25.558;2023-02-28T15:21:25;40.95;;;22.23;;
7108;SDS011;29079;41.930;25.558;2023-02-28T15:24:02;43.80;;;24.33;;
7108;SDS011;29079;41.930;25.558;2023-02-28T15:26:40;42.75;;;23.45;;
7108;SDS011;29079;41.930;25.558;2023-02-28T15:29:17;41.58;;;22.75;;
7108;SDS011;29079;41.930;25.558;2023-02-28T15:31:55;41.53;;;22.13;;
7108;SDS011;29079;41.930;25.558;2023-02-28T15:34:33;31.75;;;18.73;;
7108;SDS011;29079;41.930;25.558;2023-02-28T15:40:04;40.70;;;20.33;;
7108;SDS011;29079;41.930;25.558;2023-02-28T15:42:57;36.25;;;21.33;;
7108;SDS011;29079;41.930;25.558;2023-02-28T15:45:34;41.67;;;21.67;;
7108;SDS011;29079;41.930;25.558;2023-02-28T15:48:14;40.35;;;21.42;;
7108;SDS011;29079;41.930;25.558;2023-02-28T15:50:51;33.97;;;19.67;;
7108;SDS011;29079;41.930;25.558;2023-02-28T15:53:28;31.88;;;18.85;;
7108;SDS011;29079;41.930;25.558;2023-02-28T15:56:05;35.30;;;20.77;;
7108;SDS011;29079;41.930;25.558;2023-02-28T15:58:47;39.67;;;20.65;;
7108;SDS011;29079;41.930;25.558;2023-02-28T16:01:25;34.28;;;21.15;;
7108;SDS011;29079;41.930;25.558;2023-02-28T16:04:02;47.42;;;25.00;;
7108;SDS011;29079;41.930;25.558;2023-02-28T16:06:39;42.33;;;22.60;;
7108;SDS011;29079;41.930;25.558;2023-02-28T16:09:15;39.55;;;23.85;;
7108;SDS011;29079;41.930;25.558;2023-02-28T16:11:51;45.95;;;25.33;;
7108;SDS011;29079;41.930;25.558;2023-02-28T16:14:27;49.70;;;27.27;;
7108;SDS011;29079;41.930;25.558;2023-02-28T16:17:04;51.35;;;28.15;;
7108;SDS011;29079;41.930;25.558;2023-02-28T16:19:41;51.22;;;28.27;;
7108;SDS011;29079;41.930;25.558;2023-02-28T16:22:14;58.40;;;32.80;;
7108;SDS011;29079;41.930;25.558;2023-02-28T16:24:48;43.78;;;25.08;;
7108;SDS011;29079;41.930;25.558;2023-02-28T16:27:24;42.05;;;23.92;;
7108;SDS011;29079;41.930;25.558;2023-02-28T16:30:04;48.00;;;26.00;;
7108;SDS011;29079;41.930;25.558;2023-02-28T16:32:40;45.05;;;25.83;;
7108;SDS011;29079;41.930;25.558;2023-02-28T16:35:14;44.53;;;24.92;;